This is the latest recevied weather packets stored in our database for station/object WA6GRA. If no packets are shown the sender has not sent any weather packets the latest 1 day(s).
| Time | Temp. | Humidity | Pressure | Rain* | Wind** | Luminosity | Snow |
|---|---|---|---|---|---|---|---|
| 1778084676 | 17.22° C | 68% | 1020 hPa | 0 mm | - | 514 W/m² | - |
| 1778081754 | 16.67° C | 70% | 1020 hPa | 0 mm | - | 350 W/m² | - |
| 1778081154 | 15.56° C | 72% | 1019.9 hPa | 0 mm | - | 315 W/m² | - |
| 1778079948 | 15.56° C | 71% | 1020 hPa | 0 mm | - | 248 W/m² | - |
| 1778077538 | 15° C | 74% | 1019.9 hPa | 0 mm | - | 132 W/m² | - |
| 1778076329 | 12.78° C | 81% | 1019.5 hPa | 0 mm | - | 86 W/m² | - |
| 1778073926 | 10.56° C | 89% | 1019.2 hPa | 0 mm | - | 23 W/m² | - |
| 1778070912 | 10° C | 90% | 1018.7 hPa | 0 mm | - | 0 W/m² | - |
| 1778070312 | 10° C | 90% | 1018.6 hPa | 0 mm | - | 0 W/m² | - |
| 1778066693 | 10.56° C | 88% | 1018.4 hPa | 0 mm | - | 0 W/m² | - |
| 1778065489 | 11.11° C | 88% | 1018.6 hPa | 0 mm | - | 0 W/m² | - |
| 1778064283 | 11.11° C | 87% | 1018.1 hPa | 0 mm | - | 0 W/m² | - |
| 1778063678 | 11.11° C | 86% | 1018.2 hPa | 0 mm | - | 0 W/m² | - |
| 1778063073 | 11.11° C | 85% | 1017.9 hPa | 0 mm | - | 0 W/m² | - |
| 1778060658 | 11.11° C | 87% | 1017.5 hPa | 0 mm | - | 0 W/m² | - |
| 1778060059 | 11.11° C | 87% | 1017.9 hPa | 0 mm | - | 0 W/m² | - |
| 1778059454 | 11.67° C | 86% | 1017.7 hPa | 0 mm | - | 0 W/m² | - |
| 1778058255 | 12.78° C | 83% | 1017.9 hPa | 0 mm | - | 0 W/m² | - |
| 1778057654 | 12.78° C | 81% | 1017.9 hPa | 0 mm | - | 0 W/m² | - |
| 1778056453 | 12.78° C | 83% | 1017.9 hPa | 0 mm | - | 0 W/m² | - |
| 1778055853 | 12.22° C | 85% | 1017.8 hPa | 0 mm | - | 0 W/m² | - |
| 1778054652 | 12.78° C | 84% | 1017.9 hPa | 0 mm | - | 0 W/m² | - |
| 1778054048 | 12.78° C | 84% | 1017.6 hPa | 0 mm | - | 0 W/m² | - |
| 1778050432 | 13.33° C | 80% | 1017.2 hPa | 0 mm | - | 0 W/m² | - |
| 1778049225 | 13.89° C | 80% | 1017.2 hPa | 0 mm | - | 0 W/m² | - |
* Rain latest hour (hover to see other rain measurements)
** Current wind speed in m/s (hover to see current wind gust speed)